3IN6 weather

Holloway Field
New Washington, Indiana, United States

Public forecast

Using degrees Fahrenheit for public forecast. Weather courtesy of forecast.io.

Closest aviation weather report (METAR) to Holloway Field

Closest report is Madison Municipal Airport, 10.4 nm (19.3 km) N. Retrieved 2019/10/18 02:35 UTC (0 seconds ago):

KIMS 180235Z AUTO 00000KT 10SM CLR 05/05 A3005 RMK AO1

Closest aviation forecast (TAF) to Holloway Field

Closest forecast is Louisville International Standiford Field, 27.1 nm (50.2 km) SSW. Retrieved 2019-10-18 00:22 UTC (2 hours ago):

TAF KSDF 172320Z 1800/1906 VRB03KT P6SM SKC FM181700 13006KT P6SM FEW250